createdAt,value
2022-10-11T00:01:28.090Z,100260.25
2022-10-11T00:06:30.843Z,100290.75
2022-10-11T00:11:33.588Z,100254.59
2022-10-11T00:16:38.617Z,100281.81
2022-10-11T00:21:41.209Z,100267.09
2022-10-11T00:26:46.737Z,100262.72
2022-10-11T00:31:49.833Z,100230.19
2022-10-11T00:36:52.380Z,100247.66
2022-10-11T00:41:55.441Z,100255.34
2022-10-11T00:47:05.167Z,100261.19
2022-10-11T00:52:33.037Z,100258.22
2022-10-11T00:57:41.052Z,100263.75
2022-10-11T01:02:43.809Z,100255.63
2022-10-11T01:07:48.044Z,100244.88
2022-10-11T01:13:22.715Z,100269.63
2022-10-11T01:18:27.855Z,100258.22
2022-10-11T01:23:57.993Z,100269.22
2022-10-11T01:29:19.469Z,100264.06
2022-10-11T01:34:43.179Z,100249.84
2022-10-11T01:40:03.130Z,100265.56
2022-10-11T01:45:09.498Z,100261.31
2022-10-11T01:50:34.457Z,100266.44
2022-10-11T01:55:54.224Z,100266.38
2022-10-11T02:01:34.276Z,100271.81
2022-10-11T02:06:55.258Z,100262.06
2022-10-11T02:12:02.460Z,100271.84
2022-10-11T02:17:11.878Z,100273.84
2022-10-11T02:22:23.635Z,100271.69
2022-10-11T02:27:33.119Z,100269.66
2022-10-11T02:32:39.828Z,100267.72
2022-10-11T02:38:05.871Z,100263.22
2022-10-11T02:43:18.086Z,100262.09
2022-10-11T02:48:21.182Z,100269.03
2022-10-11T02:53:26.206Z,100272.41
2022-10-11T02:58:28.769Z,100261.78
2022-10-11T03:03:31.388Z,100276.28
2022-10-11T03:08:34.313Z,100281.09
2022-10-11T03:13:37.038Z,100273.91
2022-10-11T03:18:39.633Z,100247.97
2022-10-11T03:23:42.891Z,100268.56
2022-10-11T03:28:45.596Z,100260.78
2022-10-11T03:33:48.228Z,100221.72
2022-10-11T03:38:50.879Z,100259.66
2022-10-11T03:43:53.444Z,100252.22
2022-10-11T03:48:56.062Z,100240.16
2022-10-11T03:53:58.778Z,100242.59
2022-10-11T03:59:02.260Z,100232.34
2022-10-11T04:04:05.577Z,100238.69
2022-10-11T04:09:08.202Z,100229.59
2022-10-11T04:14:10.739Z,100237.69
2022-10-11T04:19:13.356Z,100244.97
2022-10-11T04:24:16.013Z,100239.00
2022-10-11T04:29:18.649Z,100254.44
2022-10-11T04:34:21.269Z,100244.22
2022-10-11T04:39:23.885Z,100241.34
2022-10-11T04:44:26.497Z,100235.63
2022-10-11T04:49:29.052Z,100210.94
2022-10-11T04:54:32.047Z,100246.00
2022-10-11T04:59:34.583Z,100233.00
2022-10-11T05:04:37.165Z,100208.31
2022-10-11T05:09:39.872Z,100234.09
2022-10-11T05:14:42.428Z,100236.38
2022-10-11T05:19:44.987Z,100230.13
2022-10-11T05:24:47.603Z,100227.06
2022-10-11T05:29:50.240Z,100232.75
2022-10-11T05:34:52.903Z,100237.56
2022-10-11T05:39:55.526Z,100243.94
2022-10-11T05:44:58.161Z,100219.19
2022-10-11T05:50:00.735Z,100237.94
2022-10-11T05:55:03.648Z,100240.84
2022-10-11T06:00:06.846Z,100229.38
2022-10-11T06:05:14.725Z,100204.88
2022-10-11T06:10:17.498Z,100214.09
2022-10-11T06:15:20.137Z,100213.59
2022-10-11T06:20:22.707Z,100203.59
2022-10-11T06:25:25.355Z,100199.78
2022-10-11T06:30:28.100Z,100212.31
2022-10-11T06:35:30.881Z,100203.94
2022-10-11T06:40:33.570Z,100198.41
2022-10-11T06:45:36.213Z,100197.72
2022-10-11T06:50:58.618Z,100195.34
2022-10-11T06:56:13.041Z,100197.53
2022-10-11T07:01:19.052Z,100189.13
2022-10-11T07:06:27.293Z,100169.50
2022-10-11T07:11:29.929Z,100201.69
2022-10-11T07:16:32.553Z,100192.50
2022-10-11T07:21:35.730Z,100176.31
2022-10-11T07:26:39.322Z,100189.53
2022-10-11T07:31:43.222Z,100184.56
2022-10-11T07:36:46.985Z,100175.22
2022-10-11T07:41:49.715Z,100166.00
2022-10-11T07:46:53.036Z,100174.75
2022-10-11T07:51:55.774Z,100174.78
2022-10-11T07:56:58.376Z,100168.81
2022-10-11T08:02:01.051Z,100162.06
2022-10-11T08:07:04.285Z,100147.38
2022-10-11T08:12:07.202Z,100166.41
2022-10-11T08:17:09.805Z,100167.34
2022-10-11T08:22:12.444Z,100161.31
2022-10-11T08:27:15.116Z,100157.97
2022-10-11T08:32:17.869Z,100148.53
2022-10-11T08:37:20.458Z,100137.38
2022-10-11T08:42:26.175Z,100139.97
2022-10-11T08:48:02.349Z,100126.22
2022-10-11T08:53:25.649Z,100124.50
2022-10-11T08:59:01.865Z,100111.59
2022-10-11T09:04:06.236Z,100110.72
2022-10-11T09:09:27.257Z,100100.34
2022-10-11T09:14:54.803Z,100099.47
2022-10-11T09:20:06.027Z,100090.78
2022-10-11T09:25:26.517Z,100070.97
2022-10-11T09:30:29.189Z,100087.34
2022-10-11T09:35:38.993Z,100081.31
2022-10-11T09:41:00.641Z,100066.59
2022-10-11T09:46:03.588Z,100064.81
2022-10-11T09:51:29.864Z,100064.78
2022-10-11T09:56:40.145Z,100058.66
2022-10-11T10:01:42.805Z,100048.22
2022-10-11T10:06:45.669Z,100050.97
2022-10-11T10:11:48.542Z,100035.34
2022-10-11T10:17:02.088Z,100043.13
2022-10-11T10:22:04.718Z,100035.28
2022-10-11T10:27:23.609Z,100029.22
2022-10-11T10:32:32.645Z,100012.78
2022-10-11T10:37:53.660Z,100010.06
2022-10-11T10:42:56.326Z,100008.28
2022-10-11T10:48:20.757Z,100002.97
2022-10-11T10:53:42.304Z,99991.69
2022-10-11T10:59:14.259Z,99996.97
2022-10-11T11:04:36.229Z,99985.69
2022-10-11T11:09:49.571Z,99980.38
2022-10-11T11:14:57.876Z,99979.50
2022-10-11T11:20:21.672Z,99967.47
2022-10-11T11:25:30.082Z,99962.13
2022-10-11T11:30:49.806Z,99958.69
2022-10-11T11:35:56.395Z,99948.56
2022-10-11T11:41:06.179Z,99955.47
2022-10-11T11:46:15.642Z,99943.25
2022-10-11T11:51:30.572Z,99930.28
2022-10-11T11:56:45.970Z,99924.09
2022-10-11T12:02:11.370Z,99923.41
2022-10-11T12:07:18.019Z,99936.28
2022-10-11T12:12:34.244Z,99917.47
2022-10-11T12:17:57.405Z,99912.16
2022-10-11T12:23:02.541Z,99884.50
2022-10-11T12:28:42.552Z,99905.91
2022-10-11T12:33:45.397Z,99896.53
2022-10-11T12:39:19.666Z,99899.88
2022-10-11T12:44:28.121Z,99894.63
2022-10-11T12:50:06.139Z,99891.19
2022-10-11T12:55:46.232Z,99887.00
2022-10-11T13:00:51.920Z,99878.31
2022-10-11T13:06:01.406Z,99861.84
2022-10-11T13:11:11.597Z,99849.03
2022-10-11T13:16:27.359Z,99863.66
2022-10-11T13:21:29.875Z,99855.03
2022-10-11T13:26:32.915Z,99852.63
2022-10-11T13:31:35.494Z,99865.53
2022-10-11T13:36:38.145Z,99868.28
2022-10-11T13:41:42.168Z,99864.81
2022-10-11T13:46:44.835Z,99843.41
2022-10-11T13:51:58.881Z,99846.84
2022-10-11T13:57:02.027Z,99862.34
2022-10-11T14:02:04.661Z,99853.75
2022-10-11T14:07:33.658Z,99856.38
2022-10-11T14:12:40.865Z,99842.81
2022-10-11T14:17:45.274Z,99858.34
2022-10-11T14:22:54.273Z,99848.84
2022-10-11T14:27:57.572Z,99863.69
2022-10-11T14:33:01.569Z,99854.28
2022-10-11T14:38:04.241Z,99858.72
2022-10-11T14:43:06.783Z,99863.22
2022-10-11T14:48:09.353Z,99852.25
2022-10-11T14:53:12.452Z,99871.19
2022-10-11T14:58:19.114Z,99862.63
2022-10-11T15:03:21.711Z,99871.25
2022-10-11T15:08:24.311Z,99872.06
2022-10-11T15:13:26.949Z,99877.16
2022-10-11T15:18:29.729Z,99889.13
2022-10-11T15:23:32.288Z,99871.81
2022-10-11T15:28:35.647Z,99889.03
2022-10-11T15:33:39.518Z,99854.53
2022-10-11T15:38:42.781Z,99888.91
2022-10-11T15:43:46.425Z,99887.91
2022-10-11T15:48:50.670Z,99883.53
2022-10-11T15:53:53.276Z,99858.44
2022-10-11T15:58:56.019Z,99890.34
2022-10-11T16:03:58.696Z,99888.38
2022-10-11T16:09:01.317Z,99883.19
2022-10-11T16:14:04.294Z,99881.34
2022-10-11T16:19:06.947Z,99896.72
2022-10-11T16:24:09.605Z,99879.34
2022-10-11T16:29:12.212Z,99890.41
2022-10-11T16:34:14.835Z,99883.59
2022-10-11T16:39:18.557Z,99881.22
2022-10-11T16:44:25.370Z,99882.13
2022-10-11T16:49:28.909Z,99866.63
2022-10-11T16:54:32.069Z,99877.09
2022-10-11T16:59:35.071Z,99869.34
2022-10-11T17:04:37.668Z,99854.38
2022-10-11T17:09:44.646Z,99845.53
2022-10-11T17:14:48.427Z,99867.13
2022-10-11T17:19:51.001Z,99861.34
2022-10-11T17:24:53.620Z,99841.63
2022-10-11T17:29:56.223Z,99835.66
2022-10-11T17:35:02.106Z,99852.09
2022-10-11T17:40:06.374Z,99848.44
2022-10-11T17:45:09.275Z,99842.16
2022-10-11T17:50:12.123Z,99850.31
2022-10-11T17:55:15.216Z,99849.16
2022-10-11T18:00:17.991Z,99860.09
2022-10-11T18:05:20.619Z,99869.50
2022-10-11T18:10:23.418Z,99827.97
2022-10-11T18:15:26.253Z,99859.66
2022-10-11T18:20:29.137Z,99850.78
2022-10-11T18:25:34.438Z,99846.94
2022-10-11T18:30:45.404Z,99847.75
2022-10-11T18:35:48.051Z,99836.34
2022-10-11T18:40:50.572Z,99839.00
2022-10-11T18:46:03.043Z,99840.91
2022-10-11T18:51:09.098Z,99837.38
2022-10-11T18:56:13.829Z,99802.78
2022-10-11T19:01:22.852Z,99824.13
2022-10-11T19:06:28.920Z,99817.19
2022-10-11T19:11:32.246Z,99823.88
2022-10-11T19:16:40.464Z,99807.81
2022-10-11T19:21:43.532Z,99806.22
2022-10-11T19:26:47.143Z,99811.88
2022-10-11T19:31:58.222Z,99814.25
2022-10-11T19:37:01.326Z,99809.84
2022-10-11T19:42:05.006Z,99816.44
2022-10-11T19:47:07.664Z,99813.81
2022-10-11T19:52:10.225Z,99800.59
2022-10-11T19:57:12.845Z,99775.44
2022-10-11T20:02:15.408Z,99816.84
2022-10-11T20:07:18.015Z,99802.22
2022-10-11T20:12:20.807Z,99790.72
2022-10-11T20:17:43.457Z,99734.03
2022-10-11T20:22:46.033Z,99789.38
2022-10-11T20:27:49.252Z,99799.47
2022-10-11T20:32:52.184Z,99792.50
2022-10-11T20:37:54.973Z,99787.38
2022-10-11T20:42:57.566Z,99797.44
2022-10-11T20:48:00.193Z,99790.47
2022-10-11T20:53:02.746Z,99792.31
2022-10-11T20:58:05.356Z,99791.00
2022-10-11T21:03:08.558Z,99750.28
2022-10-11T21:08:11.611Z,99789.06
2022-10-11T21:13:14.338Z,99789.19
2022-10-11T21:18:17.208Z,99794.44
2022-10-11T21:23:19.958Z,99790.94
2022-10-11T21:28:22.761Z,99789.84
2022-10-11T21:33:27.053Z,99793.13
2022-10-11T21:38:29.674Z,99794.78
2022-10-11T21:43:33.254Z,99790.56
2022-10-11T21:48:36.010Z,99786.94
2022-10-11T21:53:38.777Z,99775.81
2022-10-11T21:58:41.418Z,99795.22
2022-10-11T22:03:44.715Z,99770.13
2022-10-11T22:08:49.026Z,99789.03
2022-10-11T22:13:51.576Z,99783.06
2022-10-11T22:18:54.406Z,99770.25
2022-10-11T22:23:57.044Z,99774.53
2022-10-11T22:29:00.568Z,99769.91
2022-10-11T22:34:03.661Z,99768.97
2022-10-11T22:39:07.985Z,99764.59
2022-10-11T22:44:15.069Z,99764.09
2022-10-11T22:49:17.832Z,99767.41
2022-10-11T22:54:20.516Z,99756.59
2022-10-11T22:59:23.093Z,99724.91
2022-10-11T23:04:25.691Z,99728.09
2022-10-11T23:09:29.045Z,99744.63
2022-10-11T23:14:31.640Z,99740.69
2022-10-11T23:19:34.202Z,99721.72
2022-10-11T23:24:36.761Z,99741.28
2022-10-11T23:29:41.084Z,99743.75
2022-10-11T23:34:43.658Z,99741.22
2022-10-11T23:39:46.270Z,99749.69
2022-10-11T23:44:48.998Z,99738.53
2022-10-11T23:49:52.017Z,99740.47
2022-10-11T23:54:55.814Z,99713.84
2022-10-11T23:59:58.467Z,99727.91
